Time;durP1;ratioP1;P1;durP2;ratioP2;P2;SDS_P1;SDS_P2;PMS_P1;PMS_P2;Temp;Humidity;BMP_temperature;BMP_pressure;BME280_temperature;BME280_humidity;BME280_pressure;Samples;Min_cycle;Max_cycle;Signal;HPM_P1;HPM_P2
2021/04/20 00:01:21;;;;;;;6.45;4.30;;;18.40;61.80;;;;;;4153362;28;20036;-59
2021/04/20 00:03:23;;;;;;;5.75;3.92;;;18.40;61.90;;;;;;4153040;28;20057;-57
2021/04/20 00:05:25;;;;;;;5.40;3.38;;;18.40;62.00;;;;;;4150947;28;20122;-55
2021/04/20 00:07:29;;;;;;;4.70;3.60;;;18.40;62.10;;;;;;4156203;28;20401;-53
2021/04/20 00:09:31;;;;;;;4.60;3.20;;;18.40;62.20;;;;;;4156838;28;20064;-54
2021/04/20 00:11:35;;;;;;;3.95;3.17;;;18.40;62.30;;;;;;4152842;28;20057;-54
2021/04/20 00:13:38;;;;;;;3.83;2.90;;;18.50;62.30;;;;;;4148994;28;20025;-56
2021/04/20 00:15:40;;;;;;;3.75;3.00;;;18.50;62.40;;;;;;4146460;28;20048;-54
2021/04/20 00:17:42;;;;;;;4.13;3.08;;;18.50;62.40;;;;;;4138950;28;20041;-55
2021/04/20 00:19:44;;;;;;;3.80;2.92;;;18.60;62.40;;;;;;4151909;28;20371;-56
2021/04/20 00:21:46;;;;;;;6.03;3.15;;;18.60;62.50;;;;;;4151580;28;20045;-56
2021/04/20 00:23:48;;;;;;;4.15;2.60;;;18.60;62.40;;;;;;4147911;28;20583;-54
2021/04/20 00:25:51;;;;;;;3.65;2.70;;;18.60;62.50;;;;;;4148925;28;20022;-54
2021/04/20 00:27:53;;;;;;;4.88;2.85;;;18.70;62.50;;;;;;4147190;28;20029;-56
2021/04/20 00:29:55;;;;;;;3.47;2.83;;;18.70;62.50;;;;;;4142198;28;20041;-54
2021/04/20 00:31:57;;;;;;;5.88;2.78;;;18.70;62.40;;;;;;4144919;28;20025;-53
2021/04/20 00:33:59;;;;;;;3.67;2.38;;;18.70;62.40;;;;;;4148388;28;20534;-56
2021/04/20 00:36:01;;;;;;;3.83;2.65;;;18.80;62.40;;;;;;4147502;28;20029;-56
2021/04/20 00:38:03;;;;;;;3.30;2.60;;;18.80;62.30;;;;;;4148340;28;20033;-59
2021/04/20 00:40:08;;;;;;;3.33;2.60;;;18.80;62.30;;;;;;4146276;28;20045;-56
2021/04/20 00:42:10;;;;;;;3.63;2.60;;;18.80;62.20;;;;;;4147238;28;20471;-52
2021/04/20 00:44:12;;;;;;;3.75;2.30;;;18.90;62.20;;;;;;4147338;28;20482;-57
2021/04/20 00:46:17;;;;;;;7.45;2.85;;;18.90;62.30;;;;;;4145580;28;20463;-49
2021/04/20 00:48:19;;;;;;;6.20;2.53;;;18.90;62.00;;;;;;4149601;28;20042;-56
2021/04/20 00:50:41;;;;;;;5.35;2.20;;;18.90;62.00;;;;;;4147332;28;20136;-50
2021/04/20 00:52:43;;;;;;;4.32;2.40;;;19.00;62.10;;;;;;4152517;28;20101;-49
2021/04/20 00:54:45;;;;;;;4.43;2.47;;;19.00;62.00;;;;;;4145355;28;20090;-50
2021/04/20 00:56:47;;;;;;;4.28;2.30;;;19.00;62.00;;;;;;4148930;28;20375;-53
2021/04/20 00:58:49;;;;;;;3.60;2.70;;;19.00;61.90;;;;;;4148039;28;20112;-54
2021/04/20 01:00:53;;;;;;;3.38;2.75;;;19.00;61.70;;;;;;4146776;28;20317;-55
2021/04/20 01:02:56;;;;;;;5.40;2.97;;;19.10;60.50;;;;;;4150271;28;20142;-54
2021/04/20 01:04:58;;;;;;;4.45;2.78;;;19.20;60.60;;;;;;4143045;28;20825;-53
2021/04/20 01:07:00;;;;;;;3.92;2.50;;;19.20;60.60;;;;;;4147992;28;20125;-51
2021/04/20 01:09:04;;;;;;;3.92;2.55;;;19.20;60.60;;;;;;4145117;28;20021;-55
2021/04/20 01:11:06;;;;;;;6.68;2.50;;;19.30;60.70;;;;;;4145654;28;20034;-55
2021/04/20 01:13:10;;;;;;;5.85;2.53;;;19.30;60.80;;;;;;4142061;28;20056;-57
2021/04/20 01:15:14;;;;;;;6.65;2.50;;;19.30;60.90;;;;;;4142670;28;20056;-55
2021/04/20 01:17:23;;;;;;;4.55;2.35;;;19.40;60.90;;;;;;4141590;28;20444;-51
2021/04/20 01:19:29;;;;;;;2.25;1.98;;;19.40;60.90;;;;;;4146340;28;20058;-51
2021/04/20 01:21:32;;;;;;;3.28;2.00;;;19.50;60.90;;;;;;4139796;28;20041;-50
2021/04/20 01:23:56;;;;;;;3.40;2.28;;;19.60;60.70;;;;;;4147726;28;20037;-54
2021/04/20 01:25:58;;;;;;;;;;;19.70;60.60;;;;;;4145078;28;20036;-51
2021/04/20 01:28:01;;;;;;;5.57;2.30;;;19.70;60.50;;;;;;4149403;28;19951;-48
2021/04/20 01:30:06;;;;;;;2.93;2.53;;;19.70;60.70;;;;;;4146167;28;20466;-51
2021/04/20 01:32:09;;;;;;;4.05;2.50;;;19.80;60.90;;;;;;4146423;28;20285;-50
2021/04/20 01:34:12;;;;;;;3.92;2.30;;;19.80;61.40;;;;;;4148029;28;20030;-48
2021/04/20 01:36:17;;;;;;;4.20;2.50;;;19.90;61.20;;;;;;4150518;28;20043;-49
2021/04/20 01:38:20;;;;;;;5.78;2.92;;;19.90;61.50;;;;;;4146874;28;20419;-48
2021/04/20 01:40:22;;;;;;;3.43;2.30;;;20.00;61.50;;;;;;4148711;28;20325;-48
2021/04/20 01:42:24;;;;;;;5.03;2.22;;;20.00;61.30;;;;;;4146716;28;20054;-50
2021/04/20 01:44:27;;;;;;;4.20;2.40;;;20.00;61.30;;;;;;4147634;28;20032;-51
2021/04/20 01:46:29;;;;;;;4.55;2.60;;;20.10;61.50;;;;;;4150175;28;20029;-49
2021/04/20 01:48:33;;;;;;;6.60;2.20;;;20.10;61.20;;;;;;4146350;28;20131;-50
2021/04/20 01:50:36;;;;;;;4.35;2.47;;;20.10;61.00;;;;;;4148972;28;20038;-51
2021/04/20 01:52:41;;;;;;;8.63;2.63;;;20.10;61.00;;;;;;4147015;28;20040;-54
2021/04/20 01:54:43;;;;;;;5.68;2.42;;;20.20;61.00;;;;;;4147252;28;20357;-49
2021/04/20 01:56:47;;;;;;;7.43;2.45;;;20.20;60.90;;;;;;4146769;28;20044;-43
2021/04/20 01:58:50;;;;;;;7.05;2.65;;;20.20;60.70;;;;;;4148303;28;20143;-47
2021/04/20 02:00:53;;;;;;;4.47;2.40;;;20.30;60.40;;;;;;4148116;28;20160;-44
2021/04/20 02:02:55;;;;;;;;;;;20.30;60.00;;;;;;4149111;28;20195;-44
2021/04/20 02:04:57;;;;;;;4.57;2.72;;;20.30;59.90;;;;;;4148698;28;19924;-44
2021/04/20 02:06:59;;;;;;;4.13;2.53;;;20.30;59.70;;;;;;4149579;28;20111;-46
2021/04/20 02:09:04;;;;;;;5.30;2.53;;;20.30;59.50;;;;;;4145240;28;20716;-46
2021/04/20 02:11:08;;;;;;;7.50;2.80;;;20.30;59.30;;;;;;4147483;28;20034;-43
2021/04/20 02:13:11;;;;;;;6.93;2.72;;;20.30;59.40;;;;;;4145873;28;20041;-43
2021/04/20 02:15:15;;;;;;;5.70;2.65;;;20.30;59.50;;;;;;4147357;28;20129;-46
2021/04/20 02:17:18;;;;;;;6.20;2.72;;;20.30;59.50;;;;;;4147717;28;20038;-46
2021/04/20 02:19:21;;;;;;;2.92;2.30;;;20.30;59.60;;;;;;4153587;28;20049;-45
2021/04/20 02:21:24;;;;;;;4.75;2.63;;;20.30;59.70;;;;;;4145895;28;20104;-48
2021/04/20 02:23:26;;;;;;;10.20;3.13;;;20.30;59.80;;;;;;4146648;28;20536;-46
2021/04/20 02:25:29;;;;;;;6.10;2.40;;;20.30;60.50;;;;;;4154065;28;20459;-47
2021/04/20 02:27:32;;;;;;;3.95;2.40;;;20.40;60.00;;;;;;4150486;28;20156;-48
2021/04/20 02:29:34;;;;;;;;;;;20.30;59.90;;;;;;4150232;28;20406;-47
2021/04/20 02:31:41;;;;;;;6.30;2.90;;;20.40;60.20;;;;;;4152833;28;19936;-51
2021/04/20 02:33:43;;;;;;;6.35;2.60;;;20.40;59.90;;;;;;4149213;28;20045;-50
2021/04/20 02:35:45;;;;;;;9.30;2.80;;;20.40;59.90;;;;;;4150163;28;20042;-51
2021/04/20 02:37:48;;;;;;;6.82;3.00;;;20.40;60.00;;;;;;4154765;28;20036;-50
2021/04/20 02:39:50;;;;;;;7.88;2.53;;;20.40;59.80;;;;;;4147851;28;20044;-48
2021/04/20 02:41:55;;;;;;;14.20;3.20;;;20.50;59.90;;;;;;4150939;28;20192;-46
2021/04/20 02:43:57;;;;;;;9.43;3.45;;;20.50;60.00;;;;;;4148666;28;20037;-46
2021/04/20 02:46:00;;;;;;;7.35;3.30;;;20.50;59.60;;;;;;4152140;28;20403;-51
2021/04/20 02:48:06;;;;;;;8.45;3.03;;;20.50;59.60;;;;;;4148620;28;20072;-45
2021/04/20 02:50:14;;;;;;;6.40;2.85;;;20.50;59.40;;;;;;4152740;28;20551;-48
2021/04/20 02:52:17;;;;;;;7.65;2.65;;;20.50;59.20;;;;;;4150877;28;20479;-45
2021/04/20 02:54:19;;;;;;;7.10;2.22;;;20.50;59.20;;;;;;4151221;28;20550;-46
2021/04/20 02:56:23;;;;;;;5.10;2.40;;;20.50;59.10;;;;;;4151940;28;20510;-53
2021/04/20 02:58:28;;;;;;;4.10;2.30;;;20.50;59.00;;;;;;4149461;28;21518;-58
2021/04/20 03:00:32;;;;;;;13.82;2.92;;;20.50;58.70;;;;;;4149112;28;20049;-48
2021/04/20 03:02:35;;;;;;;;;;;20.50;57.90;;;;;;4147236;28;20514;-50
2021/04/20 03:04:39;;;;;;;15.50;2.80;;;20.50;57.80;;;;;;4150329;28;20358;-52
2021/04/20 03:06:43;;;;;;;12.43;2.80;;;20.50;58.20;;;;;;4149130;28;20033;-48
2021/04/20 03:08:45;;;;;;;4.25;2.25;;;20.50;58.20;;;;;;4150213;28;20601;-50
2021/04/20 03:10:49;;;;;;;6.00;2.22;;;20.50;58.20;;;;;;4154573;28;20037;-48
2021/04/20 03:12:51;;;;;;;10.25;2.55;;;20.50;58.00;;;;;;4146638;28;20034;-49
2021/04/20 03:14:54;;;;;;;9.75;2.28;;;20.50;57.80;;;;;;4148747;28;20068;-49
2021/04/20 03:16:56;;;;;;;4.35;2.00;;;20.50;57.70;;;;;;4147445;28;20486;-47
2021/04/20 03:19:00;;;;;;;4.23;1.93;;;20.50;57.50;;;;;;4149325;28;20037;-48
2021/04/20 03:21:14;;;;;;;6.65;2.30;;;20.50;57.40;;;;;;4145857;28;20111;-50
2021/04/20 03:23:18;;;;;;;4.47;2.22;;;20.50;57.30;;;;;;4149695;28;20037;-46
2021/04/20 03:25:25;;;;;;;4.95;2.22;;;20.60;57.30;;;;;;4150527;28;20030;-49
2021/04/20 03:27:27;;;;;;;4.20;2.25;;;20.60;57.10;;;;;;4149760;28;20148;-46
2021/04/20 03:29:30;;;;;;;3.60;2.30;;;20.60;57.00;;;;;;4148839;28;20036;-45
2021/04/20 03:31:32;;;;;;;2.83;1.80;;;20.60;56.90;;;;;;4151667;28;20299;-43
2021/04/20 03:33:42;;;;;;;2.95;2.15;;;20.60;56.70;;;;;;4147777;28;20565;-51
2021/04/20 03:35:59;;;;;;;4.05;2.20;;;20.70;56.70;;;;;;4145034;28;20044;-44
2021/04/20 03:38:08;;;;;;;2.88;2.00;;;20.70;56.60;;;;;;4155384;28;20460;-47
2021/04/20 03:40:13;;;;;;;4.45;2.38;;;20.70;56.40;;;;;;4147489;28;20072;-43
2021/04/20 03:42:26;;;;;;;4.53;2.65;;;20.70;56.40;;;;;;4148718;28;20506;-46
2021/04/20 03:44:53;;;;;;;5.55;2.33;;;20.70;56.40;;;;;;4149803;28;20353;-49
2021/04/20 03:47:00;;;;;;;5.07;2.15;;;20.70;56.30;;;;;;4151728;28;20029;-45
2021/04/20 03:49:20;;;;;;;3.78;2.17;;;20.80;56.40;;;;;;4145185;28;20037;-46
2021/04/20 03:51:26;;;;;;;4.40;2.25;;;20.80;56.70;;;;;;4146050;28;20037;-44
2021/04/20 03:53:30;;;;;;;3.00;2.22;;;20.80;56.80;;;;;;4150915;28;20121;-45
2021/04/20 03:55:34;;;;;;;3.72;2.15;;;20.80;56.90;;;;;;4150887;28;20046;-48
2021/04/20 03:57:38;;;;;;;5.07;2.33;;;20.80;57.10;;;;;;4147973;28;20042;-49
2021/04/20 03:59:44;;;;;;;2.67;2.13;;;20.80;57.20;;;;;;4147308;28;20262;-48
2021/04/20 04:01:50;;;;;;;6.22;2.30;;;20.90;57.50;;;;;;4149017;28;20128;-45
2021/04/20 04:03:55;;;;;;;5.65;2.30;;;20.90;57.60;;;;;;4149410;28;20037;-44
2021/04/20 04:06:00;;;;;;;3.90;2.20;;;20.90;57.60;;;;;;4150688;28;20521;-44
2021/04/20 04:08:04;;;;;;;3.20;2.33;;;20.90;57.60;;;;;;4148298;28;20026;-45
2021/04/20 04:10:08;;;;;;;3.60;2.10;;;20.90;57.80;;;;;;4148045;28;20079;-46
2021/04/20 04:12:11;;;;;;;2.80;1.92;;;21.00;57.80;;;;;;4147132;28;20041;-45
2021/04/20 04:14:15;;;;;;;3.63;2.53;;;20.90;57.70;;;;;;4147941;28;20037;-48
2021/04/20 04:16:22;;;;;;;6.07;2.25;;;21.00;57.80;;;;;;4150444;28;20034;-50
2021/04/20 04:18:26;;;;;;;2.72;2.13;;;21.00;58.60;;;;;;4149169;28;20091;-45
2021/04/20 04:20:29;;;;;;;3.35;2.00;;;21.00;58.10;;;;;;4115406;28;20026;-44
2021/04/20 04:22:34;;;;;;;3.92;2.00;;;21.00;58.00;;;;;;4149828;28;20474;-45
2021/04/20 04:24:42;;;;;;;3.22;2.20;;;21.00;58.20;;;;;;4153824;28;20049;-45
2021/04/20 04:26:49;;;;;;;3.38;2.20;;;21.10;58.20;;;;;;4150765;28;20525;-44
2021/04/20 04:28:56;;;;;;;3.03;2.00;;;21.10;58.30;;;;;;4156594;28;20026;-47
2021/04/20 04:31:03;;;;;;;4.00;2.15;;;21.20;58.20;;;;;;4153922;28;21098;-46
2021/04/20 04:33:06;;;;;;;5.30;2.22;;;21.20;58.00;;;;;;4151666;28;20104;-44
2021/04/20 04:35:09;;;;;;;6.65;2.50;;;21.20;58.00;;;;;;4149789;28;20034;-60
2021/04/20 04:37:12;;;;;;;3.80;2.22;;;21.30;58.00;;;;;;4149162;28;20117;-46
2021/04/20 04:39:16;;;;;;;3.27;2.10;;;21.40;58.00;;;;;;4145194;28;20613;-49
2021/04/20 04:41:19;;;;;;;2.50;1.95;;;21.50;57.90;;;;;;4147373;28;20336;-50
2021/04/20 04:43:21;;;;;;;4.65;2.17;;;21.50;57.50;;;;;;4150478;28;20041;-48
2021/04/20 04:45:23;;;;;;;3.70;2.10;;;21.70;57.50;;;;;;4143850;28;20077;-46
2021/04/20 04:47:25;;;;;;;2.88;2.03;;;21.80;57.00;;;;;;4146549;28;20057;-47
2021/04/20 04:49:30;;;;;;;3.17;2.40;;;21.90;56.80;;;;;;4152111;28;20534;-51
2021/04/20 04:51:33;;;;;;;2.85;1.90;;;22.00;56.80;;;;;;4150026;28;20033;-45
2021/04/20 04:53:37;;;;;;;6.75;2.40;;;22.10;56.60;;;;;;4149440;28;20451;-48
2021/04/20 04:55:39;;;;;;;4.75;2.30;;;22.20;56.40;;;;;;4146559;28;20428;-46
2021/04/20 04:57:43;;;;;;;4.85;2.45;;;22.20;56.20;;;;;;4148736;28;20053;-49
2021/04/20 04:59:45;;;;;;;3.88;2.30;;;22.40;56.00;;;;;;4146495;28;20038;-50
2021/04/20 05:01:48;;;;;;;4.35;2.40;;;22.40;55.70;;;;;;4149352;28;20087;-51
2021/04/20 05:03:51;;;;;;;3.17;2.15;;;22.50;55.60;;;;;;4146153;28;20065;-49
2021/04/20 05:05:59;;;;;;;3.80;2.42;;;22.60;55.40;;;;;;4149548;28;20128;-50
2021/04/20 05:08:01;;;;;;;3.92;2.22;;;22.60;55.20;;;;;;4145750;28;20379;-49
2021/04/20 05:10:09;;;;;;;4.15;2.10;;;22.70;55.20;;;;;;4146407;28;20466;-42
2021/04/20 05:12:12;;;;;;;5.28;2.40;;;22.80;55.00;;;;;;4145121;28;20614;-44
2021/04/20 05:14:18;;;;;;;3.08;2.42;;;22.90;54.80;;;;;;4146321;28;20112;-45
2021/04/20 05:16:20;;;;;;;5.20;2.50;;;22.90;54.80;;;;;;4148425;28;20186;-43
2021/04/20 05:18:26;;;;;;;3.83;2.45;;;23.10;54.50;;;;;;4147135;28;20156;-44
2021/04/20 05:20:28;;;;;;;3.85;2.45;;;23.10;54.40;;;;;;4146331;28;20111;-50
2021/04/20 05:22:30;;;;;;;3.92;2.30;;;23.10;54.40;;;;;;4147324;28;20383;-50
2021/04/20 05:24:32;;;;;;;3.33;2.20;;;23.10;54.40;;;;;;4146574;28;20399;-45
2021/04/20 05:26:35;;;;;;;3.47;2.30;;;23.10;54.50;;;;;;4146644;28;21146;-46
2021/04/20 05:28:38;;;;;;;3.03;2.00;;;23.20;54.50;;;;;;4151531;28;20029;-46
2021/04/20 05:30:40;;;;;;;3.58;2.30;;;23.30;54.40;;;;;;4143748;28;20141;-45
2021/04/20 05:32:45;;;;;;;6.30;2.80;;;23.30;53.00;;;;;;4148398;28;20048;-54
2021/04/20 05:34:47;;;;;;;9.25;2.75;;;23.20;52.10;;;;;;4145329;28;20112;-47
2021/04/20 05:36:50;;;;;;;9.32;2.65;;;23.20;51.70;;;;;;4147601;28;20045;-46
2021/04/20 05:38:58;;;;;;;5.40;2.42;;;23.10;51.30;;;;;;4145978;28;20053;-49
2021/04/20 05:41:02;;;;;;;4.80;2.50;;;23.00;51.20;;;;;;4143435;28;20037;-51
2021/04/20 05:43:07;;;;;;;7.07;2.90;;;23.00;51.30;;;;;;4146059;28;20076;-50
2021/04/20 05:45:12;;;;;;;5.93;2.42;;;22.90;51.10;;;;;;4145726;28;20455;-47
2021/04/20 05:47:14;;;;;;;6.43;2.38;;;22.80;51.10;;;;;;4146939;28;20112;-49
2021/04/20 05:49:18;;;;;;;7.40;2.80;;;22.80;51.00;;;;;;4149981;28;20029;-58
2021/04/20 05:51:22;;;;;;;6.80;2.83;;;22.70;51.20;;;;;;4146695;28;20049;-45
2021/04/20 05:53:24;;;;;;;7.38;2.80;;;22.70;51.40;;;;;;4148809;28;20028;-49
2021/04/20 05:55:28;;;;;;;4.88;2.72;;;22.60;51.90;;;;;;4147290;28;20212;-42
2021/04/20 05:57:30;;;;;;;7.15;3.00;;;22.60;52.10;;;;;;4150136;28;20045;-43
2021/04/20 05:59:33;;;;;;;3.30;2.47;;;22.60;52.30;;;;;;4144572;28;20137;-46
2021/04/20 06:01:43;;;;;;;5.63;2.90;;;22.50;52.50;;;;;;4147057;28;20049;-44
2021/04/20 06:03:47;;;;;;;4.60;2.65;;;22.50;52.40;;;;;;4145169;28;20141;-45
2021/04/20 06:05:48;;;;;;;;;;;22.50;52.60;;;;;;4147805;28;20113;-42
2021/04/20 06:07:56;;;;;;;4.75;2.50;;;22.50;52.40;;;;;;4148636;28;19956;-43
2021/04/20 06:10:18;;;;;;;6.05;2.58;;;22.50;52.70;;;;;;4144657;28;20478;-44
2021/04/20 06:12:21;;;;;;;2.97;2.30;;;22.50;53.50;;;;;;4147166;28;20121;-44
2021/04/20 06:14:23;;;;;;;4.47;2.60;;;22.40;52.60;;;;;;4149351;28;20043;-44
2021/04/20 06:16:25;;;;;;;5.00;2.35;;;22.50;52.80;;;;;;4148066;28;20026;-43
2021/04/20 06:18:29;;;;;;;3.03;2.38;;;22.50;52.80;;;;;;4149688;28;20445;-44
2021/04/20 06:20:32;;;;;;;8.02;2.70;;;22.40;52.90;;;;;;4147274;28;20033;-48
2021/04/20 06:22:36;;;;;;;3.70;2.67;;;22.50;52.70;;;;;;4146050;28;20099;-46
2021/04/20 06:24:38;;;;;;;6.07;2.60;;;22.40;52.50;;;;;;4146386;28;20048;-44
2021/04/20 06:26:41;;;;;;;6.88;2.60;;;22.40;52.40;;;;;;4146783;28;20033;-45
2021/04/20 06:28:44;;;;;;;5.63;2.60;;;22.40;52.30;;;;;;4149147;28;20029;-46
2021/04/20 06:30:46;;;;;;;5.13;2.80;;;22.40;52.40;;;;;;4140839;28;20063;-44
2021/04/20 06:32:49;;;;;;;6.15;3.03;;;22.40;52.40;;;;;;4147096;28;20037;-47
2021/04/20 06:34:52;;;;;;;7.65;3.05;;;22.40;52.70;;;;;;4149173;28;20033;-41
2021/04/20 06:36:55;;;;;;;5.80;3.00;;;22.30;52.70;;;;;;4146844;28;20076;-45
2021/04/20 06:38:57;;;;;;;;;;;22.30;52.60;;;;;;4145946;28;20041;-42
2021/04/20 06:41:01;;;;;;;5.07;2.40;;;22.30;52.80;;;;;;4146703;28;19909;-44
2021/04/20 06:43:12;;;;;;;3.80;2.42;;;22.30;53.40;;;;;;4145400;28;20037;-41
2021/04/20 06:45:37;;;;;;;3.47;1.90;;;22.30;53.80;;;;;;4144393;28;20247;-42
2021/04/20 06:47:50;;;;;;;7.78;2.45;;;22.30;54.00;;;;;;4145247;28;20049;-45
2021/04/20 06:50:13;;;;;;;5.95;2.65;;;22.30;54.40;;;;;;4152465;28;20029;-45
2021/04/20 06:52:37;;;;;;;4.82;2.25;;;22.30;54.70;;;;;;4145671;28;20068;-43
2021/04/20 06:55:08;;;;;;;4.13;2.10;;;22.30;54.80;;;;;;4148265;28;20045;-45
2021/04/20 06:57:16;;;;;;;3.80;2.25;;;22.30;55.00;;;;;;4143723;28;20037;-42
2021/04/20 06:59:40;;;;;;;4.55;2.20;;;22.30;55.10;;;;;;4145009;28;20040;-42
2021/04/20 07:02:01;;;;;;;3.70;2.20;;;22.40;55.10;;;;;;4151045;28;20578;-43
2021/04/20 07:04:13;;;;;;;3.20;2.35;;;22.60;54.90;;;;;;4143396;28;20191;-44
2021/04/20 07:06:31;;;;;;;3.30;2.30;;;22.70;54.80;;;;;;4142369;28;20082;-48
2021/04/20 07:08:45;;;;;;;3.03;2.28;;;22.60;54.80;;;;;;4145171;28;20052;-48
2021/04/20 07:10:50;;;;;;;9.80;2.58;;;22.60;54.50;;;;;;4142812;28;20028;-50
2021/04/20 07:13:10;;;;;;;3.70;2.67;;;22.50;53.80;;;;;;4150169;28;20037;-51
2021/04/20 07:15:20;;;;;;;4.28;2.67;;;22.40;53.20;;;;;;4150520;28;20029;-52
2021/04/20 07:17:34;;;;;;;5.85;3.05;;;22.40;53.00;;;;;;4145986;28;20115;-47
2021/04/20 07:20:01;;;;;;;5.05;2.60;;;22.30;52.90;;;;;;4149214;28;20530;-49
2021/04/20 07:22:21;;;;;;;4.15;2.90;;;22.20;53.20;;;;;;4151061;28;20108;-52
2021/04/20 07:24:51;;;;;;;7.63;2.78;;;22.20;53.20;;;;;;4148307;28;20037;-49
2021/04/20 07:27:14;;;;;;;3.08;2.60;;;22.20;53.30;;;;;;4125863;28;20093;-51
2021/04/20 07:29:43;;;;;;;3.92;2.53;;;22.10;53.30;;;;;;4147038;28;20037;-51
2021/04/20 07:32:16;;;;;;;3.58;2.38;;;22.10;53.40;;;;;;4147908;28;20562;-47
2021/04/20 07:35:03;;;;;;;8.38;2.92;;;22.00;53.50;;;;;;4149239;28;20033;-45
2021/04/20 07:37:06;;;;;;;4.13;2.85;;;22.00;53.50;;;;;;4085224;28;20031;-46
2021/04/20 07:39:19;;;;;;;6.25;2.88;;;22.00;54.00;;;;;;4127124;28;20228;-48
2021/04/20 07:41:41;;;;;;;5.13;3.03;;;22.00;54.30;;;;;;4148169;28;20029;-52
2021/04/20 07:44:07;;;;;;;5.60;2.88;;;22.10;54.60;;;;;;4149187;28;20037;-49
2021/04/20 07:46:15;;;;;;;8.82;2.95;;;22.00;55.00;;;;;;4149715;28;20117;-48
2021/04/20 07:48:51;;;;;;;5.80;2.65;;;22.10;55.30;;;;;;4149706;28;20034;-48
2021/04/20 07:50:59;;;;;;;8.57;3.03;;;22.10;55.30;;;;;;4148445;28;20034;-50
2021/04/20 07:53:30;;;;;;;5.97;2.90;;;22.10;55.50;;;;;;4149232;28;20417;-46
2021/04/20 07:56:19;;;;;;;6.13;2.75;;;22.10;55.60;;;;;;4124416;28;20495;-48
2021/04/20 07:58:24;;;;;;;8.45;2.72;;;22.10;55.70;;;;;;4120487;28;20063;-46
2021/04/20 08:00:57;;;;;;;8.15;2.88;;;22.10;56.10;;;;;;4151178;28;20122;-46
2021/04/20 08:03:25;;;;;;;5.20;2.95;;;22.10;56.10;;;;;;4116721;28;20179;-49
2021/04/20 08:05:36;;;;;;;6.38;3.15;;;22.10;56.10;;;;;;4146020;28;20061;-47
2021/04/20 08:07:44;;;;;;;6.10;3.17;;;22.20;56.20;;;;;;4147917;28;20120;-49
2021/04/20 08:09:50;;;;;;;5.40;2.80;;;22.20;56.30;;;;;;4146286;28;20295;-48
2021/04/20 08:12:17;;;;;;;4.55;2.50;;;22.10;56.40;;;;;;4150239;28;20075;-46
2021/04/20 08:14:31;;;;;;;4.72;2.58;;;22.10;56.50;;;;;;4148752;28;20037;-45
2021/04/20 08:16:45;;;;;;;6.30;2.60;;;22.10;56.40;;;;;;4146847;28;20547;-48
2021/04/20 08:18:58;;;;;;;6.25;2.42;;;22.10;56.40;;;;;;4142500;28;20057;-46
2021/04/20 08:21:02;;;;;;;4.43;2.30;;;22.10;56.40;;;;;;4147734;28;20041;-50
2021/04/20 08:23:07;;;;;;;4.65;2.50;;;22.10;56.40;;;;;;4146691;28;20048;-44
2021/04/20 08:25:26;;;;;;;7.07;3.25;;;22.10;56.30;;;;;;4144509;28;20395;-45
2021/04/20 08:28:06;;;;;;;5.50;3.05;;;22.10;55.00;;;;;;4144304;28;20058;-46
2021/04/20 08:30:25;;;;;;;8.13;3.40;;;22.10;54.70;;;;;;4124060;28;20041;-45
2021/04/20 08:32:30;;;;;;;12.13;3.13;;;22.00;54.40;;;;;;4146400;28;20025;-44
2021/04/20 08:34:45;;;;;;;5.40;3.30;;;22.00;54.40;;;;;;4153775;28;20455;-44
2021/04/20 08:37:08;;;;;;;5.45;3.17;;;22.00;54.40;;;;;;4145271;28;20066;-41
2021/04/20 08:39:37;;;;;;;5.75;3.10;;;21.90;54.10;;;;;;4141047;28;20037;-40
2021/04/20 08:41:57;;;;;;;6.57;2.90;;;21.80;54.30;;;;;;4148211;28;20041;-43
2021/04/20 08:44:20;;;;;;;5.55;2.90;;;21.90;54.60;;;;;;4145384;28;20040;-40
2021/04/20 08:46:28;;;;;;;7.55;3.38;;;21.80;54.50;;;;;;4150373;28;20056;-60
2021/04/20 08:48:49;;;;;;;7.53;3.03;;;21.80;54.70;;;;;;4145837;28;20041;-58
2021/04/20 08:51:09;;;;;;;6.97;3.42;;;21.70;54.70;;;;;;4149471;28;20034;-69
2021/04/20 08:53:54;;;;;;;5.18;3.08;;;21.70;54.70;;;;;;4148768;28;20495;-62
2021/04/20 08:56:29;;;;;;;7.20;3.60;;;21.70;54.70;;;;;;4149200;28;20041;-64
2021/04/20 08:58:34;;;;;;;7.60;3.00;;;21.70;54.60;;;;;;4149945;28;20045;-65
2021/04/20 09:00:46;;;;;;;7.32;3.38;;;21.60;54.50;;;;;;4152031;28;20072;-68
2021/04/20 09:03:13;;;;;;;5.70;3.42;;;21.70;54.80;;;;;;4147535;28;20104;-65
2021/04/20 09:05:32;;;;;;;4.15;2.63;;;21.60;54.60;;;;;;4156562;28;20032;-68
2021/04/20 09:07:53;;;;;;;4.30;2.50;;;21.60;54.70;;;;;;4151815;28;20486;-69
2021/04/20 09:10:00;;;;;;;5.30;2.83;;;21.60;54.70;;;;;;4148394;28;20034;-63
2021/04/20 09:12:09;;;;;;;4.80;2.63;;;21.60;54.90;;;;;;4146849;28;20068;-67
2021/04/20 09:14:22;;;;;;;3.75;2.40;;;21.60;54.90;;;;;;4144552;28;20034;-64
2021/04/20 09:16:41;;;;;;;2.80;2.13;;;21.60;54.90;;;;;;4150578;28;20021;-62
2021/04/20 09:18:46;;;;;;;3.17;2.30;;;21.60;55.00;;;;;;4144817;28;20356;-61
2021/04/20 09:21:23;;;;;;;4.65;2.15;;;21.60;55.10;;;;;;4148582;28;20025;-64
2021/04/20 09:24:07;;;;;;;3.60;2.33;;;21.60;55.10;;;;;;4148300;28;20136;-62
2021/04/20 09:26:17;;;;;;;4.35;2.20;;;21.60;55.30;;;;;;4135364;28;20545;-63
2021/04/20 09:28:35;;;;;;;3.20;2.25;;;21.50;55.30;;;;;;4148603;28;20403;-65
2021/04/20 09:31:23;;;;;;;2.25;1.80;;;21.50;55.30;;;;;;4144480;28;20029;-63
2021/04/20 09:33:52;;;;;;;4.15;2.53;;;21.50;55.20;;;;;;4146839;28;20423;-67
2021/04/20 09:35:54;;;;;;;2.75;2.00;;;21.50;55.40;;;;;;4138491;28;20029;-63
2021/04/20 09:37:58;;;;;;;2.67;1.90;;;21.50;55.30;;;;;;4146865;28;20037;-64
2021/04/20 09:40:01;;;;;;;3.28;2.38;;;21.50;55.30;;;;;;4146605;28;20332;-61
2021/04/20 09:42:07;;;;;;;4.40;2.00;;;21.50;55.30;;;;;;4145123;28;20148;-64
2021/04/20 09:44:31;;;;;;;3.25;1.95;;;21.50;55.40;;;;;;4147894;28;20071;-65
2021/04/20 09:46:49;;;;;;;2.90;2.20;;;21.40;55.20;;;;;;4147543;28;20037;-66
2021/04/20 09:49:01;;;;;;;3.05;2.10;;;21.40;55.40;;;;;;4143621;28;20033;-65
2021/04/20 09:51:18;;;;;;;2.80;2.00;;;21.40;55.40;;;;;;4147200;28;20041;-63
2021/04/20 09:53:38;;;;;;;2.95;1.95;;;21.40;55.40;;;;;;4150016;28;20072;-64
2021/04/20 09:56:04;;;;;;;5.05;2.65;;;21.40;55.60;;;;;;4148851;28;20061;-64
2021/04/20 09:58:09;;;;;;;3.00;2.30;;;21.40;55.60;;;;;;4149022;28;20086;-64
2021/04/20 10:00:22;;;;;;;4.88;2.83;;;21.40;55.50;;;;;;4149096;28;20037;-64
2021/04/20 10:02:46;;;;;;;4.72;2.35;;;21.30;55.50;;;;;;4144572;28;20148;-63
2021/04/20 10:05:07;;;;;;;5.18;2.85;;;21.30;55.60;;;;;;4151521;28;20029;-63
2021/04/20 10:07:27;;;;;;;6.53;3.15;;;21.30;55.60;;;;;;4147036;28;20064;-62
2021/04/20 10:10:01;;;;;;;5.85;3.17;;;21.30;55.40;;;;;;4144879;28;20029;-62
2021/04/20 10:12:31;;;;;;;5.67;2.70;;;21.30;55.70;;;;;;4148475;28;20033;-64
2021/04/20 10:14:42;;;;;;;4.38;2.63;;;21.30;56.00;;;;;;4144683;28;20317;-62
2021/04/20 10:17:09;;;;;;;4.32;2.70;;;21.30;56.00;;;;;;4147951;28;20091;-63
2021/04/20 10:19:39;;;;;;;4.28;2.45;;;21.40;56.20;;;;;;4142369;28;20103;-63
2021/04/20 10:22:27;;;;;;;8.93;2.88;;;21.40;56.40;;;;;;4146871;28;20037;-61
2021/04/20 10:24:32;;;;;;;5.55;2.60;;;21.40;56.50;;;;;;4102847;28;20053;-63
2021/04/20 10:27:01;;;;;;;6.00;2.92;;;21.40;56.60;;;;;;4148596;28;20057;-61
2021/04/20 10:29:29;;;;;;;10.60;2.67;;;21.40;56.50;;;;;;4148330;28;20320;-66
2021/04/20 10:31:54;;;;;;;14.00;2.85;;;21.40;56.60;;;;;;4150810;28;20045;-64
2021/04/20 10:33:57;;;;;;;7.05;2.38;;;21.50;56.80;;;;;;4144421;28;20568;-66
2021/04/20 10:36:02;;;;;;;5.95;2.45;;;21.50;57.00;;;;;;4149721;28;20647;-61
2021/04/20 10:38:15;;;;;;;10.63;2.42;;;21.50;57.00;;;;;;4148513;28;20538;-63
2021/04/20 10:40:35;;;;;;;5.93;2.42;;;21.50;57.10;;;;;;4142711;28;20033;-65
2021/04/20 10:42:38;;;;;;;3.95;2.35;;;21.50;57.10;;;;;;4141702;28;20476;-64
2021/04/20 10:44:42;;;;;;;8.20;2.08;;;21.50;57.00;;;;;;4147474;28;20123;-65
2021/04/20 10:46:51;;;;;;;4.95;2.50;;;21.50;57.10;;;;;;4146403;28;20026;-62
2021/04/20 10:48:56;;;;;;;4.05;2.30;;;21.50;57.10;;;;;;4151458;28;20033;-63
2021/04/20 10:50:58;;;;;;;2.05;1.65;;;21.50;57.10;;;;;;4145825;28;20217;-64
2021/04/20 10:53:18;;;;;;;4.45;2.15;;;21.50;57.00;;;;;;4150064;28;20034;-64
2021/04/20 10:55:26;;;;;;;3.25;1.70;;;21.50;57.10;;;;;;4148532;28;20650;-65
2021/04/20 10:57:32;;;;;;;5.20;1.92;;;21.50;57.90;;;;;;4150344;28;20033;-65
2021/04/20 10:59:39;;;;;;;6.20;2.03;;;21.50;57.40;;;;;;4129472;28;20107;-69
2021/04/20 11:01:42;;;;;;;4.63;1.95;;;21.50;57.50;;;;;;4148097;28;20115;-63
2021/04/20 11:03:48;;;;;;;9.55;2.53;;;21.60;57.60;;;;;;4147966;28;20507;-62
2021/04/20 11:05:50;;;;;;;3.42;2.05;;;21.60;57.70;;;;;;4147410;28;20676;-63
2021/04/20 11:07:54;;;;;;;3.63;2.25;;;21.60;57.70;;;;;;4147854;28;20435;-63
2021/04/20 11:10:03;;;;;;;4.68;2.35;;;21.50;57.80;;;;;;4159564;28;20041;-62
2021/04/20 11:12:19;;;;;;;6.47;2.38;;;21.60;57.90;;;;;;4148178;28;20120;-62
2021/04/20 11:14:39;;;;;;;5.70;2.45;;;21.60;57.90;;;;;;4145006;28;20030;-61